Time;durP1;ratioP1;P1;durP2;ratioP2;P2;SDS_P1;SDS_P2;PMS_P1;PMS_P2;Temp;Humidity;BMP_temperature;BMP_pressure;BME280_temperature;BME280_humidity;BME280_pressure;Samples;Min_cycle;Max_cycle;Signal;HPM_P1;HPM_P2
2021/10/30 00:00:46;;;;;;;10.33;5.90;;;;;;;;;;4974160;28;20528;-53
2021/10/30 00:03:12;;;;;;;6.70;5.50;;;;;;;;;;4974361;28;20494;-53
2021/10/30 00:05:39;;;;;;;7.20;6.40;;;;;;;;;;4974262;28;20457;-53
2021/10/30 00:08:05;;;;;;;8.17;6.57;;;;;;;;;;4974536;28;20409;-52
2021/10/30 00:10:31;;;;;;;8.47;6.80;;;;;;;;;;4974076;28;20898;-52
2021/10/30 00:12:58;;;;;;;10.93;6.03;;;;;;;;;;4974426;28;20759;-52
2021/10/30 00:15:24;;;;;;;11.20;7.67;;;;;;;;;;4974320;28;20473;-52
2021/10/30 00:17:50;;;;;;;8.60;6.30;;;;;;;;;;4974174;28;20406;-51
2021/10/30 00:20:16;;;;;;;12.40;5.83;;;;;;;;;;4973882;28;21121;-52
2021/10/30 00:22:42;;;;;;;7.30;6.30;;;;;;;;;;4974152;28;20464;-52
2021/10/30 00:25:08;;;;;;;9.93;7.10;;;;;;;;;;4973392;28;20400;-51
2021/10/30 00:27:34;;;;;;;9.50;6.30;;;;;;;;;;4972437;28;20416;-51
2021/10/30 00:30:00;;;;;;;6.87;6.13;;;;;;;;;;4973785;28;20769;-52
2021/10/30 00:32:26;;;;;;;6.37;5.53;;;;;;;;;;4973660;28;20420;-52
2021/10/30 00:34:52;;;;;;;10.23;6.77;;;;;;;;;;4973864;28;20408;-52
2021/10/30 00:37:17;;;;;;;9.90;6.47;;;;;;;;;;4973715;28;20387;-52
2021/10/30 00:39:43;;;;;;;8.13;6.67;;;;;;;;;;4973760;28;20386;-50
2021/10/30 00:42:09;;;;;;;9.60;5.80;;;;;;;;;;4973592;28;20439;-50
2021/10/30 00:44:35;;;;;;;11.00;6.40;;;;;;;;;;4973895;28;20413;-51
2021/10/30 00:47:01;;;;;;;10.73;6.83;;;;;;;;;;4973758;28;20757;-51
2021/10/30 00:49:28;;;;;;;8.80;5.93;;;;;;;;;;4973618;28;20807;-51
2021/10/30 00:51:56;;;;;;;8.67;5.97;;;;;;;;;;4973549;28;20783;-50
2021/10/30 00:54:23;;;;;;;6.03;5.43;;;;;;;;;;4973703;28;20449;-52
2021/10/30 00:56:53;;;;;;;6.23;5.60;;;;;;;;;;4973521;28;20493;-51
2021/10/30 00:59:19;;;;;;;7.13;5.30;;;;;;;;;;4973446;28;20380;-53
2021/10/30 01:01:48;;;;;;;8.63;6.30;;;;;;;;;;4972534;28;20469;-52
2021/10/30 01:04:14;;;;;;;6.00;5.50;;;;;;;;;;4972919;28;20411;-53
2021/10/30 01:06:42;;;;;;;9.50;5.70;;;;;;;;;;4973060;28;20390;-52
2021/10/30 01:09:09;;;;;;;7.80;5.60;;;;;;;;;;4972753;28;20447;-53
2021/10/30 01:11:35;;;;;;;6.73;6.10;;;;;;;;;;4973071;28;20482;-51
2021/10/30 01:14:02;;;;;;;13.63;6.37;;;;;;;;;;4973200;28;20406;-51
2021/10/30 01:16:28;;;;;;;9.87;5.83;;;;;;;;;;4988128;28;20392;-51
2021/10/30 01:18:54;;;;;;;6.83;5.63;;;;;;;;;;4973276;28;20407;-51
2021/10/30 01:21:25;;;;;;;6.57;5.73;;;;;;;;;;4972979;28;20471;-51
2021/10/30 01:23:51;;;;;;;7.33;5.70;;;;;;;;;;4988768;28;20382;-52
2021/10/30 01:26:19;;;;;;;9.63;5.97;;;;;;;;;;4973185;28;20378;-54
2021/10/30 01:28:45;;;;;;;10.27;5.53;;;;;;;;;;4973125;28;20442;-53
2021/10/30 01:31:11;;;;;;;6.53;5.93;;;;;;;;;;4972967;28;20463;-54
2021/10/30 01:33:37;;;;;;;6.67;5.97;;;;;;;;;;4973301;28;20410;-52
2021/10/30 01:36:07;;;;;;;9.43;5.10;;;;;;;;;;4973101;28;20490;-53
2021/10/30 01:38:33;;;;;;;6.87;5.80;;;;;;;;;;4973221;28;20385;-52
2021/10/30 01:41:00;;;;;;;6.43;5.60;;;;;;;;;;4972728;28;20460;-51
2021/10/30 01:43:26;;;;;;;8.93;5.50;;;;;;;;;;4972970;28;20379;-52
2021/10/30 01:45:52;;;;;;;6.07;5.13;;;;;;;;;;4973190;28;20550;-53
2021/10/30 01:48:18;;;;;;;5.90;5.30;;;;;;;;;;4973058;28;20406;-50
2021/10/30 01:50:44;;;;;;;6.10;4.80;;;;;;;;;;4972691;28;21022;-50
2021/10/30 01:53:10;;;;;;;8.07;5.63;;;;;;;;;;4973417;28;20412;-51
2021/10/30 01:55:38;;;;;;;8.63;5.97;;;;;;;;;;4973160;28;20573;-53
2021/10/30 01:58:05;;;;;;;16.93;5.33;;;;;;;;;;4972984;28;21134;-53
2021/10/30 02:00:31;;;;;;;6.73;5.10;;;;;;;;;;4972522;28;20517;-54
2021/10/30 02:02:57;;;;;;;6.17;5.67;;;;;;;;;;4972922;28;20417;-52
2021/10/30 02:05:23;;;;;;;6.73;4.93;;;;;;;;;;4973090;28;20397;-53
2021/10/30 02:07:50;;;;;;;5.60;5.00;;;;;;;;;;4973039;28;20814;-52
2021/10/30 02:10:16;;;;;;;6.00;4.83;;;;;;;;;;4972518;28;20386;-53
2021/10/30 02:12:43;;;;;;;7.50;4.80;;;;;;;;;;4972820;28;20785;-53
2021/10/30 02:15:10;;;;;;;6.57;5.40;;;;;;;;;;4972711;28;20419;-53
2021/10/30 02:17:37;;;;;;;6.90;5.00;;;;;;;;;;4972864;28;20487;-52
2021/10/30 02:20:05;;;;;;;4.63;4.23;;;;;;;;;;4972622;28;21035;-53
2021/10/30 02:22:31;;;;;;;9.57;4.20;;;;;;;;;;4975112;28;20432;-53
2021/10/30 02:24:57;;;;;;;10.50;4.87;;;;;;;;;;4976541;28;20895;-53
2021/10/30 02:27:26;;;;;;;8.37;4.90;;;;;;;;;;4976291;28;20436;-53
2021/10/30 02:29:52;;;;;;;6.40;4.73;;;;;;;;;;4976062;28;20986;-51
2021/10/30 02:32:18;;;;;;;5.17;4.57;;;;;;;;;;4975486;28;20460;-50
2021/10/30 02:34:44;;;;;;;7.00;5.27;;;;;;;;;;4976193;28;20920;-53
2021/10/30 02:37:10;;;;;;;8.23;5.17;;;;;;;;;;4976124;28;20484;-54
2021/10/30 02:39:36;;;;;;;6.20;5.20;;;;;;;;;;4976028;28;20408;-52
2021/10/30 02:42:03;;;;;;;5.50;4.70;;;;;;;;;;4975567;28;20467;-53
2021/10/30 02:44:30;;;;;;;4.50;4.10;;;;;;;;;;4976000;28;20404;-53
2021/10/30 02:46:56;;;;;;;7.63;5.20;;;;;;;;;;4975879;28;20903;-53
2021/10/30 02:49:22;;;;;;;5.97;4.97;;;;;;;;;;4990856;28;20478;-53
2021/10/30 02:51:48;;;;;;;5.23;4.53;;;;;;;;;;4975180;28;20453;-53
2021/10/30 02:54:14;;;;;;;5.97;5.00;;;;;;;;;;4975772;28;20490;-51
2021/10/30 02:56:40;;;;;;;5.13;4.63;;;;;;;;;;4975767;28;20389;-52
2021/10/30 02:59:06;;;;;;;9.00;5.37;;;;;;;;;;4975658;28;20962;-52
2021/10/30 03:01:32;;;;;;;4.90;4.30;;;;;;;;;;4975442;28;20891;-53
2021/10/30 03:03:58;;;;;;;5.67;4.30;;;;;;;;;;4975652;28;20926;-51
2021/10/30 03:06:26;;;;;;;7.83;4.87;;;;;;;;;;4975607;28;20421;-53
2021/10/30 03:08:52;;;;;;;8.47;5.07;;;;;;;;;;4975524;28;20404;-53
2021/10/30 03:11:18;;;;;;;8.87;4.47;;;;;;;;;;4975183;28;20463;-54
2021/10/30 03:13:45;;;;;;;9.70;4.17;;;;;;;;;;4975372;28;20434;-52
2021/10/30 03:16:11;;;;;;;4.60;4.20;;;;;;;;;;4975523;28;20415;-53
2021/10/30 03:18:37;;;;;;;5.03;4.50;;;;;;;;;;4975435;28;20415;-53
2021/10/30 03:21:03;;;;;;;6.40;3.97;;;;;;;;;;4974968;28;20467;-53
2021/10/30 03:23:29;;;;;;;9.20;4.40;;;;;;;;;;4975200;28;20403;-52
2021/10/30 03:25:55;;;;;;;5.00;4.17;;;;;;;;;;4975248;28;20888;-54
2021/10/30 03:28:21;;;;;;;4.97;4.53;;;;;;;;;;4975158;28;20412;-53
2021/10/30 03:30:47;;;;;;;8.10;5.00;;;;;;;;;;4974918;28;20508;-53
2021/10/30 03:33:13;;;;;;;6.53;4.70;;;;;;;;;;4974651;28;20414;-52
2021/10/30 03:35:40;;;;;;;5.40;4.17;;;;;;;;;;4975089;28;20816;-53
2021/10/30 03:38:06;;;;;;;6.23;5.20;;;;;;;;;;4974982;28;20408;-51
2021/10/30 03:40:32;;;;;;;5.67;4.50;;;;;;;;;;4974544;28;20824;-52
2021/10/30 03:42:58;;;;;;;6.00;3.90;;;;;;;;;;4974983;28;20849;-53
2021/10/30 03:45:24;;;;;;;6.13;4.23;;;;;;;;;;4974875;28;20488;-53
2021/10/30 03:47:50;;;;;;;5.07;4.57;;;;;;;;;;4975170;28;20412;-53
2021/10/30 03:50:16;;;;;;;7.23;5.00;;;;;;;;;;4974506;28;20411;-53
2021/10/30 03:52:42;;;;;;;4.97;4.20;;;;;;;;;;4974702;28;20814;-53
2021/10/30 03:55:09;;;;;;;6.00;4.57;;;;;;;;;;4974970;28;20498;-52
2021/10/30 03:57:35;;;;;;;5.87;4.63;;;;;;;;;;4974586;28;20402;-53
2021/10/30 04:00:00;;;;;;;5.43;4.40;;;;;;;;;;4974567;28;20408;-52
2021/10/30 04:02:26;;;;;;;5.57;4.97;;;;;;;;;;4974336;28;21013;-52
2021/10/30 04:04:52;;;;;;;6.63;5.23;;;;;;;;;;4974634;28;20407;-53
2021/10/30 04:07:19;;;;;;;7.20;4.97;;;;;;;;;;4974315;28;20770;-51
2021/10/30 04:09:45;;;;;;;4.63;4.23;;;;;;;;;;4974365;28;20453;-52
2021/10/30 04:12:11;;;;;;;5.30;4.80;;;;;;;;;;4974021;28;20426;-51
2021/10/30 04:14:37;;;;;;;4.83;4.07;;;;;;;;;;4974272;28;20944;-51
2021/10/30 04:17:03;;;;;;;4.87;4.37;;;;;;;;;;4974310;28;20411;-51
2021/10/30 04:19:29;;;;;;;8.10;4.57;;;;;;;;;;4974133;28;20403;-51
2021/10/30 04:21:55;;;;;;;6.70;5.17;;;;;;;;;;4974214;28;20463;-53
2021/10/30 04:24:21;;;;;;;5.33;4.40;;;;;;;;;;4974186;28;20400;-50
2021/10/30 04:26:47;;;;;;;5.37;4.40;;;;;;;;;;4974101;28;20405;-53
2021/10/30 04:29:14;;;;;;;5.27;4.63;;;;;;;;;;4974047;28;20551;-54
2021/10/30 04:31:41;;;;;;;5.17;4.67;;;;;;;;;;4973713;28;20434;-53
2021/10/30 04:34:08;;;;;;;6.30;4.67;;;;;;;;;;4973951;28;20411;-53
2021/10/30 04:36:35;;;;;;;10.33;5.10;;;;;;;;;;4973869;28;20488;-54
2021/10/30 04:39:03;;;;;;;5.90;5.00;;;;;;;;;;4973954;28;20414;-53
2021/10/30 04:41:29;;;;;;;5.00;4.37;;;;;;;;;;4973431;28;20524;-51
2021/10/30 04:43:55;;;;;;;9.63;4.77;;;;;;;;;;4973155;28;20486;-53
2021/10/30 04:46:22;;;;;;;5.93;4.90;;;;;;;;;;4973884;28;20859;-50
2021/10/30 04:48:48;;;;;;;6.67;4.80;;;;;;;;;;4973725;28;20407;-53
2021/10/30 04:51:14;;;;;;;6.40;5.20;;;;;;;;;;4973339;28;20449;-53
2021/10/30 04:53:41;;;;;;;6.50;5.53;;;;;;;;;;4973681;28;20971;-54
2021/10/30 04:56:08;;;;;;;7.57;5.20;;;;;;;;;;4973609;28;20497;-51
2021/10/30 04:58:34;;;;;;;10.50;5.30;;;;;;;;;;4973676;28;20376;-53
2021/10/30 05:01:01;;;;;;;10.23;5.70;;;;;;;;;;4973399;28;20979;-52
2021/10/30 05:03:27;;;;;;;5.63;5.03;;;;;;;;;;4973638;28;20414;-52
2021/10/30 05:05:53;;;;;;;5.50;4.93;;;;;;;;;;4973669;28;20971;-54
2021/10/30 05:08:19;;;;;;;8.83;5.53;;;;;;;;;;4973567;28;20447;-53
2021/10/30 05:10:46;;;;;;;5.30;4.43;;;;;;;;;;4973097;28;20417;-52
2021/10/30 05:13:12;;;;;;;6.73;5.83;;;;;;;;;;4973622;28;20431;-53
2021/10/30 05:15:38;;;;;;;6.57;5.20;;;;;;;;;;4973666;28;20407;-53
2021/10/30 05:18:04;;;;;;;6.43;4.77;;;;;;;;;;4973381;28;20933;-53
2021/10/30 05:20:30;;;;;;;6.00;4.60;;;;;;;;;;4972831;28;20550;-53
2021/10/30 05:22:56;;;;;;;5.87;5.10;;;;;;;;;;4973361;28;20406;-53
2021/10/30 05:25:23;;;;;;;5.10;4.60;;;;;;;;;;4973187;28;20441;-53
2021/10/30 05:27:49;;;;;;;6.20;5.23;;;;;;;;;;4973283;28;20398;-52
2021/10/30 05:30:15;;;;;;;6.50;5.40;;;;;;;;;;4972915;28;20420;-53
2021/10/30 05:32:42;;;;;;;6.80;4.80;;;;;;;;;;4973195;28;20898;-53
2021/10/30 05:35:08;;;;;;;6.40;5.00;;;;;;;;;;4973253;28;20419;-53
2021/10/30 05:37:34;;;;;;;7.50;4.87;;;;;;;;;;4972345;28;20409;-53
2021/10/30 05:40:00;;;;;;;5.60;5.10;;;;;;;;;;4973316;28;20390;-53
2021/10/30 05:42:26;;;;;;;5.80;5.30;;;;;;;;;;4973619;28;20427;-52
2021/10/30 05:44:52;;;;;;;5.37;4.87;;;;;;;;;;4973725;28;20424;-52
2021/10/30 05:47:18;;;;;;;9.03;4.80;;;;;;;;;;4973419;28;20406;-52
2021/10/30 05:49:44;;;;;;;8.30;5.40;;;;;;;;;;4973388;28;20906;-53
2021/10/30 05:52:11;;;;;;;6.50;5.47;;;;;;;;;;4972873;28;20432;-53
2021/10/30 05:54:38;;;;;;;6.27;5.10;;;;;;;;;;4973209;28;20489;-53
2021/10/30 05:57:04;;;;;;;5.57;4.80;;;;;;;;;;4976947;28;20482;-51
2021/10/30 05:59:31;;;;;;;8.30;4.60;;;;;;;;;;4977070;28;20904;-54
2021/10/30 06:01:56;;;;;;;9.33;5.20;;;;;;;;;;4976841;28;20466;-53
2021/10/30 06:04:23;;;;;;;5.73;5.23;;;;;;;;;;4976821;28;20407;-53
2021/10/30 06:06:49;;;;;;;6.97;4.60;;;;;;;;;;4976725;28;20437;-53
2021/10/30 06:09:15;;;;;;;6.83;5.40;;;;;;;;;;4976670;28;20406;-53
2021/10/30 06:11:41;;;;;;;5.23;4.73;;;;;;;;;;4976527;28;20802;-53
2021/10/30 06:14:09;;;;;;;5.83;5.23;;;;;;;;;;4976555;28;20467;-52
2021/10/30 06:16:35;;;;;;;5.93;4.93;;;;;;;;;;4976488;28;20426;-52
2021/10/30 06:19:01;;;;;;;8.57;5.00;;;;;;;;;;4976589;28;20889;-52
2021/10/30 06:21:27;;;;;;;5.83;5.17;;;;;;;;;;4976189;28;20525;-52
2021/10/30 06:23:58;;;;;;;6.10;5.20;;;;;;;;;;4976441;28;20536;-52
2021/10/30 06:26:24;;;;;;;5.17;4.70;;;;;;;;;;4976504;28;20735;-52
2021/10/30 06:28:50;;;;;;;5.47;4.97;;;;;;;;;;4976420;28;21000;-52
2021/10/30 06:31:16;;;;;;;6.97;5.33;;;;;;;;;;4976450;28;20438;-51
2021/10/30 06:33:43;;;;;;;4.97;4.47;;;;;;;;;;4976161;28;20414;-50
2021/10/30 06:36:09;;;;;;;6.23;4.87;;;;;;;;;;4976296;28;20414;-51
2021/10/30 06:38:35;;;;;;;5.37;4.90;;;;;;;;;;4976136;28;20407;-53
2021/10/30 06:41:05;;;;;;;8.13;4.90;;;;;;;;;;4975726;28;20515;-53
2021/10/30 06:43:31;;;;;;;7.03;4.77;;;;;;;;;;4976001;28;20960;-52
2021/10/30 06:45:57;;;;;;;5.50;4.73;;;;;;;;;;4976118;28;20453;-52
2021/10/30 06:48:24;;;;;;;5.93;5.33;;;;;;;;;;4975820;28;20813;-53
2021/10/30 06:50:50;;;;;;;7.00;5.33;;;;;;;;;;4975622;28;20433;-52
2021/10/30 06:53:16;;;;;;;6.60;4.90;;;;;;;;;;4976026;28;20418;-53
2021/10/30 06:55:45;;;;;;;5.60;5.03;;;;;;;;;;4976100;28;20823;-53
2021/10/30 06:58:12;;;;;;;5.07;4.63;;;;;;;;;;4976003;28;20821;-52
2021/10/30 07:00:37;;;;;;;10.50;4.90;;;;;;;;;;4975587;28;20882;-51
2021/10/30 07:03:06;;;;;;;8.13;5.60;;;;;;;;;;4976016;28;20377;-50
2021/10/30 07:05:32;;;;;;;4.80;4.40;;;;;;;;;;4975760;28;20902;-50
2021/10/30 07:07:58;;;;;;;7.20;5.17;;;;;;;;;;4974876;28;20456;-49
2021/10/30 07:10:24;;;;;;;5.90;5.30;;;;;;;;;;4975321;28;20505;-50
2021/10/30 07:12:50;;;;;;;6.20;5.20;;;;;;;;;;4975353;28;20540;-54
2021/10/30 07:15:16;;;;;;;6.73;5.10;;;;;;;;;;4975510;28;20882;-53
2021/10/30 07:17:42;;;;;;;7.70;5.43;;;;;;;;;;4973421;28;20471;-52
2021/10/30 07:20:08;;;;;;;5.00;4.40;;;;;;;;;;4979319;28;20425;-53
2021/10/30 07:22:41;;;;;;;6.73;5.73;;;;;;;;;;4975243;28;20424;-52
2021/10/30 07:25:08;;;;;;;7.53;5.37;;;;;;;;;;4976033;28;20539;-50
2021/10/30 07:27:37;;;;;;;7.50;5.17;;;;;;;;;;4975132;28;20464;-49
2021/10/30 07:30:07;;;;;;;6.90;5.63;;;;;;;;;;4975233;28;20410;-51
2021/10/30 07:32:33;;;;;;;7.00;5.03;;;;;;;;;;4975051;28;20895;-49
2021/10/30 07:34:59;;;;;;;5.23;4.80;;;;;;;;;;4974945;28;21108;-49
2021/10/30 07:37:25;;;;;;;5.37;4.70;;;;;;;;;;4974921;28;20401;-49
2021/10/30 07:39:51;;;;;;;5.97;5.37;;;;;;;;;;4974861;28;20493;-51
2021/10/30 07:42:18;;;;;;;6.90;4.90;;;;;;;;;;4974604;28;20461;-49
2021/10/30 07:44:44;;;;;;;5.47;4.73;;;;;;;;;;4974908;28;20641;-49
2021/10/30 07:47:10;;;;;;;6.73;5.00;;;;;;;;;;4974737;28;20401;-49
2021/10/30 07:49:36;;;;;;;9.20;5.10;;;;;;;;;;4974657;28;20420;-49
2021/10/30 07:52:03;;;;;;;5.30;4.73;;;;;;;;;;4974347;28;20917;-48
2021/10/30 07:54:29;;;;;;;5.47;4.83;;;;;;;;;;4974460;28;20409;-52
2021/10/30 07:56:55;;;;;;;6.90;5.53;;;;;;;;;;4974053;28;20405;-49
2021/10/30 07:59:21;;;;;;;5.53;5.00;;;;;;;;;;4974155;28;20767;-49
2021/10/30 08:01:50;;;;;;;7.03;4.53;;;;;;;;;;4974034;28;20470;-51
2021/10/30 08:04:17;;;;;;;5.33;4.23;;;;;;;;;;4973081;28;20489;-49
2021/10/30 08:06:43;;;;;;;6.20;4.80;;;;;;;;;;4974314;28;20405;-50
2021/10/30 08:09:08;;;;;;;11.07;4.90;;;;;;;;;;4973995;28;20409;-49
2021/10/30 08:11:34;;;;;;;5.80;4.80;;;;;;;;;;4973359;28;20452;-49
2021/10/30 08:14:00;;;;;;;8.30;4.90;;;;;;;;;;4973081;28;20430;-49
2021/10/30 08:16:26;;;;;;;6.40;4.60;;;;;;;;;;4974192;28;20824;-49
2021/10/30 08:18:52;;;;;;;6.17;4.30;;;;;;;;;;4974173;28;20405;-51
2021/10/30 08:21:19;;;;;;;4.93;4.13;;;;;;;;;;4973636;28;20820;-53
2021/10/30 08:23:45;;;;;;;7.87;6.30;;;;;;;;;;4973624;28;20402;-49
2021/10/30 08:26:11;;;;;;;5.20;4.70;;;;;;;;;;4974372;28;20408;-48
2021/10/30 08:28:37;;;;;;;4.80;4.30;;;;;;;;;;4974034;28;20402;-49
2021/10/30 08:31:03;;;;;;;6.50;5.30;;;;;;;;;;4973666;28;20431;-52
2021/10/30 08:33:29;;;;;;;4.60;4.20;;;;;;;;;;4974002;28;20422;-50
2021/10/30 08:35:55;;;;;;;5.87;4.43;;;;;;;;;;4973863;28;20633;-49
2021/10/30 08:38:21;;;;;;;5.53;4.93;;;;;;;;;;4973885;28;20406;-48
2021/10/30 08:40:47;;;;;;;7.40;4.60;;;;;;;;;;4973356;28;20487;-49
2021/10/30 08:43:19;;;;;;;5.10;4.20;;;;;;;;;;4973819;28;20409;-49
2021/10/30 08:45:46;;;;;;;4.97;4.50;;;;;;;;;;4973822;28;20954;-49
2021/10/30 08:48:13;;;;;;;6.70;5.17;;;;;;;;;;4973754;28;20556;-49
2021/10/30 08:50:39;;;;;;;6.90;4.80;;;;;;;;;;4973180;28;20431;-50
2021/10/30 08:53:05;;;;;;;12.47;4.97;;;;;;;;;;4973716;28;20409;-49
2021/10/30 08:55:31;;;;;;;5.80;4.30;;;;;;;;;;4973666;28;20498;-49
2021/10/30 08:58:07;;;;;;;5.97;4.53;;;;;;;;;;4973548;28;20383;-49
2021/10/30 09:00:37;;;;;;;4.97;4.50;;;;;;;;;;4973091;28;21011;-48
2021/10/30 09:03:04;;;;;;;5.70;5.10;;;;;;;;;;4973481;28;20438;-48
2021/10/30 09:05:32;;;;;;;4.63;4.23;;;;;;;;;;4973390;28;20504;-49
2021/10/30 09:08:02;;;;;;;4.40;4.00;;;;;;;;;;4973433;28;20768;-49
2021/10/30 09:10:29;;;;;;;4.77;4.27;;;;;;;;;;4973023;28;20405;-49
2021/10/30 09:12:57;;;;;;;6.10;4.33;;;;;;;;;;4973248;28;20417;-49
2021/10/30 09:15:38;;;;;;;5.13;4.30;;;;;;;;;;4973391;28;20398;-48
2021/10/30 09:18:19;;;;;;;7.23;3.73;;;;;;;;;;4973370;28;20482;-49
2021/10/30 09:20:48;;;;;;;4.10;3.80;;;;;;;;;;4972833;28;20469;-49
2021/10/30 09:23:14;;;;;;;6.23;4.10;;;;;;;;;;4973266;28;20409;-48
2021/10/30 09:26:09;;;;;;;29.37;18.03;;;;;;;;;;4973195;28;20488;-49
2021/10/30 09:28:50;;;;;;;9.87;5.30;;;;;;;;;;4972541;28;20448;-49
2021/10/30 09:31:17;;;;;;;5.50;4.57;;;;;;;;;;4972433;28;20909;-49
2021/10/30 09:33:50;;;;;;;4.70;4.30;;;;;;;;;;4970964;28;20931;-50
2021/10/30 09:36:16;;;;;;;7.83;5.10;;;;;;;;;;4984350;28;20932;-50
2021/10/30 09:38:44;;;;;;;4.30;3.90;;;;;;;;;;4990448;28;20399;-49
2021/10/30 09:41:31;;;;;;;5.10;4.60;;;;;;;;;;4989946;28;20465;-50
2021/10/30 09:44:11;;;;;;;4.30;3.90;;;;;;;;;;4991410;28;20468;-49
2021/10/30 09:46:39;;;;;;;4.47;4.03;;;;;;;;;;4992199;28;20374;-49
2021/10/30 09:49:11;;;;;;;4.33;3.93;;;;;;;;;;4992150;28;20470;-52
2021/10/30 09:51:38;;;;;;;4.80;4.20;;;;;;;;;;4991992;28;20495;-49
2021/10/30 09:54:05;;;;;;;4.30;3.87;;;;;;;;;;4992353;28;20846;-49
2021/10/30 09:56:38;;;;;;;4.67;4.27;;;;;;;;;;4992355;28;20402;-49
2021/10/30 09:59:06;;;;;;;8.43;5.07;;;;;;;;;;4992290;28;20911;-49
2021/10/30 10:01:32;;;;;;;6.60;4.20;;;;;;;;;;4991781;28;20465;-49
2021/10/30 10:04:00;;;;;;;6.70;4.50;;;;;;;;;;4992169;28;20437;-49
2021/10/30 10:06:26;;;;;;;5.00;4.50;;;;;;;;;;4992275;28;20431;-49
2021/10/30 10:08:52;;;;;;;5.43;4.93;;;;;;;;;;4992237;28;20908;-50
2021/10/30 10:11:19;;;;;;;6.60;5.37;;;;;;;;;;4991981;28;20431;-49
2021/10/30 10:13:46;;;;;;;5.30;4.50;;;;;;;;;;4992048;28;20416;-49
2021/10/30 10:16:13;;;;;;;7.50;5.63;;;;;;;;;;4979900;28;20413;-49
2021/10/30 10:18:40;;;;;;;6.57;4.50;;;;;;;;;;4972592;28;20465;-48
2021/10/30 10:21:06;;;;;;;5.63;4.30;;;;;;;;;;4972455;28;20460;-51
2021/10/30 10:23:34;;;;;;;8.07;5.03;;;;;;;;;;4972585;28;20402;-50
2021/10/30 10:26:00;;;;;;;5.30;4.80;;;;;;;;;;4972557;28;20461;-48
2021/10/30 10:28:26;;;;;;;9.03;5.40;;;;;;;;;;4972579;28;20499;-50
2021/10/30 10:30:54;;;;;;;7.13;5.30;;;;;;;;;;4972063;28;20803;-48
2021/10/30 10:33:20;;;;;;;5.20;4.23;;;;;;;;;;4972468;28;20403;-49
2021/10/30 10:36:05;;;;;;;7.10;5.00;;;;;;;;;;4972470;28;20885;-49
2021/10/30 10:38:49;;;;;;;6.57;5.27;;;;;;;;;;4972526;28;20404;-49
2021/10/30 10:41:38;;;;;;;10.13;5.03;;;;;;;;;;4971953;28;20494;-51
2021/10/30 10:44:05;;;;;;;5.60;4.47;;;;;;;;;;4975606;28;20405;-48
2021/10/30 10:46:32;;;;;;;7.03;4.50;;;;;;;;;;4975960;28;20899;-48
2021/10/30 10:49:17;;;;;;;9.60;5.50;;;;;;;;;;4975857;28;20397;-50
2021/10/30 10:52:02;;;;;;;6.13;4.70;;;;;;;;;;4975452;28;20426;-48
2021/10/30 10:54:28;;;;;;;6.50;4.90;;;;;;;;;;4975920;28;20459;-49
2021/10/30 10:56:58;;;;;;;6.50;5.40;;;;;;;;;;4975757;28;20922;-49
2021/10/30 10:59:42;;;;;;;6.43;5.80;;;;;;;;;;4975708;28;20877;-48
2021/10/30 11:02:16;;;;;;;11.17;5.33;;;;;;;;;;4975245;28;20488;-48
2021/10/30 11:04:42;;;;;;;5.77;4.77;;;;;;;;;;4975556;28;20414;-48
2021/10/30 11:07:13;;;;;;;5.27;4.77;;;;;;;;;;4975559;28;20918;-50
2021/10/30 11:09:48;;;;;;;9.03;4.73;;;;;;;;;;4975428;28;20437;-49
2021/10/30 11:12:32;;;;;;;5.70;5.17;;;;;;;;;;4975047;28;20432;-49
2021/10/30 11:15:08;;;;;;;6.60;4.57;;;;;;;;;;4975505;28;20485;-48
2021/10/30 11:17:43;;;;;;;6.37;5.10;;;;;;;;;;4975392;28;20420;-48
2021/10/30 11:20:13;;;;;;;7.97;4.93;;;;;;;;;;4975171;28;20409;-49
2021/10/30 11:22:52;;;;;;;6.80;4.73;;;;;;;;;;4975168;28;20414;-51
2021/10/30 11:25:18;;;;;;;5.33;4.83;;;;;;;;;;4975312;28;20398;-48
2021/10/30 11:27:51;;;;;;;7.13;4.80;;;;;;;;;;4975084;28;20405;-48
2021/10/30 11:30:17;;;;;;;6.00;4.87;;;;;;;;;;4974802;28;20446;-52
2021/10/30 11:32:43;;;;;;;6.83;5.33;;;;;;;;;;4975022;28;20461;-48
2021/10/30 11:35:11;;;;;;;7.17;5.40;;;;;;;;;;4974923;28;20464;-49
2021/10/30 11:37:41;;;;;;;7.60;5.73;;;;;;;;;;4975052;28;20408;-49
2021/10/30 11:40:07;;;;;;;5.63;5.07;;;;;;;;;;4974775;28;20432;-50
2021/10/30 11:42:40;;;;;;;6.60;5.83;;;;;;;;;;4974856;28;20455;-49
2021/10/30 11:45:07;;;;;;;7.10;6.40;;;;;;;;;;4974906;28;20406;-51
2021/10/30 11:47:32;;;;;;;6.10;5.37;;;;;;;;;;4974672;28;20421;-52
2021/10/30 11:49:59;;;;;;;8.23;6.17;;;;;;;;;;4974595;28;20879;-49
2021/10/30 11:52:26;;;;;;;6.07;5.47;;;;;;;;;;4974455;28;20435;-50
2021/10/30 11:54:55;;;;;;;7.73;5.43;;;;;;;;;;4974954;28;20447;-49
2021/10/30 11:57:21;;;;;;;8.27;5.47;;;;;;;;;;4975195;28;20771;-49
2021/10/30 11:59:56;;;;;;;6.40;5.80;;;;;;;;;;4974581;28;20887;-48
2021/10/30 12:02:22;;;;;;;6.20;5.30;;;;;;;;;;4974080;28;20457;-49
2021/10/30 12:04:48;;;;;;;6.43;5.73;;;;;;;;;;4974551;28;20406;-48
2021/10/30 12:07:15;;;;;;;6.13;5.00;;;;;;;;;;4973578;28;20538;-49
2021/10/30 12:09:42;;;;;;;8.53;5.00;;;;;;;;;;4974312;28;20495;-49
2021/10/30 12:12:12;;;;;;;8.70;5.73;;;;;;;;;;4974073;28;20423;-51
2021/10/30 12:14:40;;;;;;;6.57;5.07;;;;;;;;;;4974121;28;20425;-49
2021/10/30 12:17:07;;;;;;;5.17;4.33;;;;;;;;;;4974165;28;20479;-47
2021/10/30 12:19:37;;;;;;;7.00;4.93;;;;;;;;;;4974227;28;20942;-48
2021/10/30 12:22:11;;;;;;;8.43;5.33;;;;;;;;;;4973782;28;20466;-48
2021/10/30 12:24:39;;;;;;;7.43;5.10;;;;;;;;;;4974158;28;20402;-48
2021/10/30 12:27:06;;;;;;;7.53;5.20;;;;;;;;;;4974104;28;20415;-50
2021/10/30 12:29:33;;;;;;;5.53;4.70;;;;;;;;;;4973893;28;20410;-48
2021/10/30 12:32:06;;;;;;;5.10;4.67;;;;;;;;;;4973611;28;20433;-48
2021/10/30 12:34:33;;;;;;;6.73;4.73;;;;;;;;;;4973935;28;20407;-49
2021/10/30 12:37:01;;;;;;;5.90;5.30;;;;;;;;;;4973921;28;20413;-48
2021/10/30 12:39:27;;;;;;;7.57;4.63;;;;;;;;;;4973774;28;20412;-48
2021/10/30 12:42:13;;;;;;;5.60;4.97;;;;;;;;;;4973265;28;20803;-49
2021/10/30 12:44:40;;;;;;;7.03;4.23;;;;;;;;;;4973510;28;20444;-48
2021/10/30 12:47:14;;;;;;;5.50;4.87;;;;;;;;;;4973879;28;20895;-47
2021/10/30 12:49:43;;;;;;;4.57;3.97;;;;;;;;;;4973429;28;20768;-48
2021/10/30 12:52:14;;;;;;;6.53;5.13;;;;;;;;;;4973609;28;20433;-51
2021/10/30 12:54:53;;;;;;;6.17;5.10;;;;;;;;;;4973655;28;20493;-48
2021/10/30 12:57:19;;;;;;;6.80;4.80;;;;;;;;;;4973543;28;20474;-49
2021/10/30 12:59:47;;;;;;;5.53;5.03;;;;;;;;;;4971793;28;20449;-50
2021/10/30 13:02:24;;;;;;;7.03;5.27;;;;;;;;;;4973574;28;20543;-48
2021/10/30 13:04:50;;;;;;;8.93;5.30;;;;;;;;;;4953274;28;20482;-51
2021/10/30 13:07:18;;;;;;;6.40;4.73;;;;;;;;;;4964009;28;20422;-50
2021/10/30 13:09:53;;;;;;;9.70;4.93;;;;;;;;;;4972331;28;20425;-48
2021/10/30 13:12:19;;;;;;;6.60;4.50;;;;;;;;;;4971327;28;20465;-49
2021/10/30 13:14:45;;;;;;;5.60;5.03;;;;;;;;;;4955209;28;20527;-48
2021/10/30 13:17:11;;;;;;;6.20;4.90;;;;;;;;;;4973157;28;20493;-48
2021/10/30 13:19:37;;;;;;;6.17;5.20;;;;;;;;;;4972363;28;20483;-49
2021/10/30 13:22:03;;;;;;;4.93;4.23;;;;;;;;;;4972709;28;20491;-50
2021/10/30 13:24:29;;;;;;;6.53;4.10;;;;;;;;;;4973167;28;20404;-50
2021/10/30 13:26:55;;;;;;;5.43;4.73;;;;;;;;;;4972331;28;20413;-51
2021/10/30 13:29:21;;;;;;;5.03;4.63;;;;;;;;;;4972190;28;20408;-48
2021/10/30 13:31:47;;;;;;;5.27;4.60;;;;;;;;;;4972662;28;20506;-51
2021/10/30 13:34:14;;;;;;;5.90;5.00;;;;;;;;;;4973044;28;20883;-50
2021/10/30 13:36:41;;;;;;;4.90;4.50;;;;;;;;;;4972568;28;20420;-51
2021/10/30 13:39:07;;;;;;;5.30;4.20;;;;;;;;;;4973035;28;20419;-48
2021/10/30 13:41:33;;;;;;;5.60;4.07;;;;;;;;;;4956994;28;20447;-49
2021/10/30 13:44:02;;;;;;;4.60;4.30;;;;;;;;;;4953641;28;20410;-48
2021/10/30 13:46:29;;;;;;;5.40;4.00;;;;;;;;;;4953581;29;20398;-49
2021/10/30 13:48:55;;;;;;;4.30;4.00;;;;;;;;;;4953608;29;20403;-50
2021/10/30 13:51:24;;;;;;;3.90;3.60;;;;;;;;;;4953176;28;20886;-48
2021/10/30 13:53:50;;;;;;;5.47;4.60;;;;;;;;;;4953127;29;20855;-49
2021/10/30 13:56:16;;;;;;;4.20;3.70;;;;;;;;;;4953529;29;20516;-48
2021/10/30 13:58:43;;;;;;;3.97;3.33;;;;;;;;;;4953533;28;20493;-49
2021/10/30 14:01:09;;;;;;;9.23;3.87;;;;;;;;;;4957060;28;20536;-48
2021/10/30 14:03:36;;;;;;;4.70;4.30;;;;;;;;;;4963924;28;20413;-52
2021/10/30 14:06:02;;;;;;;3.80;3.50;;;;;;;;;;4959239;28;20765;-48
2021/10/30 14:08:28;;;;;;;5.13;4.37;;;;;;;;;;4971369;28;20381;-50
2021/10/30 14:10:54;;;;;;;4.37;3.90;;;;;;;;;;4971100;28;20435;-51
2021/10/30 14:13:20;;;;;;;4.37;3.93;;;;;;;;;;4971181;28;20454;-52
2021/10/30 14:15:46;;;;;;;3.50;3.20;;;;;;;;;;4965254;28;20445;-48
2021/10/30 14:18:12;;;;;;;4.93;4.00;;;;;;;;;;4976347;28;20393;-48
2021/10/30 14:20:38;;;;;;;3.37;3.07;;;;;;;;;;4975928;28;20430;-48
2021/10/30 14:23:04;;;;;;;4.33;3.87;;;;;;;;;;4976362;28;20398;-48
2021/10/30 14:25:30;;;;;;;3.97;3.60;;;;;;;;;;4974040;28;20393;-49
2021/10/30 14:27:56;;;;;;;4.03;3.73;;;;;;;;;;4974771;28;20381;-49
2021/10/30 14:30:22;;;;;;;6.37;3.70;;;;;;;;;;4974892;28;20814;-49
2021/10/30 14:32:48;;;;;;;4.77;3.80;;;;;;;;;;4976163;28;20768;-49
2021/10/30 14:35:14;;;;;;;5.27;3.87;;;;;;;;;;4975627;28;20498;-48
2021/10/30 14:37:40;;;;;;;3.63;3.37;;;;;;;;;;4975405;28;20821;-51
2021/10/30 14:40:07;;;;;;;4.67;4.20;;;;;;;;;;4975237;28;20410;-50
2021/10/30 14:42:34;;;;;;;5.07;3.43;;;;;;;;;;4976183;28;20436;-50
2021/10/30 14:45:03;;;;;;;3.33;3.13;;;;;;;;;;4959515;28;20461;-49